Time;durP1;ratioP1;P1;durP2;ratioP2;P2;SDS_P1;SDS_P2;PMS_P1;PMS_P2;Temp;Humidity;BMP_temperature;BMP_pressure;BME280_temperature;BME280_humidity;BME280_pressure;Samples;Min_cycle;Max_cycle;Signal;HPM_P1;HPM_P2
2023/06/29 00:01:15;;;;;;;;;53.75;40.75;;;;;23.56;47.96;101037.94;5072604;27;45577;-69
2023/06/29 00:03:41;;;;;;;;;58.50;44.50;;;;;23.55;48.04;101042.44;5077260;27;65625;-69
2023/06/29 00:06:07;;;;;;;;;61.25;47.00;;;;;23.55;48.14;101042.44;5073966;28;45548;-69
2023/06/29 00:08:36;;;;;;;;;64.00;48.50;;;;;23.57;48.09;101034.28;5077393;28;45343;-69
2023/06/29 00:11:04;;;;;;;;;60.25;45.25;;;;;23.56;48.44;101036.13;5070165;28;45410;-71
2023/06/29 00:13:29;;;;;;;;;56.00;43.50;;;;;23.58;48.49;101044.84;5050182;28;45556;-71
2023/06/29 00:15:55;;;;;;;;;59.75;45.50;;;;;23.59;48.30;101038.56;5072588;27;55763;-71
2023/06/29 00:18:20;;;;;;;;;59.25;44.50;;;;;23.61;48.32;101035.78;5076309;27;45828;-71
2023/06/29 00:20:46;;;;;;;;;66.25;47.25;;;;;23.60;48.42;101023.38;5066969;28;51106;-71
2023/06/29 00:23:11;;;;;;;;;59.50;47.00;;;;;23.63;48.56;101028.47;5075766;27;45355;-71
2023/06/29 00:25:38;;;;;;;;;74.75;59.00;;;;;23.64;48.17;101028.38;5074020;28;66598;-71
2023/06/29 00:28:04;;;;;;;;;74.00;56.00;;;;;23.65;48.50;101021.19;5076576;27;45421;-71
2023/06/29 00:30:30;;;;;;;;;78.50;64.00;;;;;23.66;48.40;101017.56;5063608;28;45508;-71
2023/06/29 00:32:55;;;;;;;;;76.75;63.75;;;;;23.66;48.48;101012.22;5075248;27;45525;-71
2023/06/29 00:35:21;;;;;;;;;83.00;69.75;;;;;23.65;48.78;101015.84;5062149;28;45253;-71
2023/06/29 00:37:47;;;;;;;;;103.00;85.25;;;;;23.63;48.59;101005.28;5070964;28;46373;-71
2023/06/29 00:40:12;;;;;;;;;99.50;83.25;;;;;23.63;48.61;101009.78;5070684;28;46002;-69
2023/06/29 00:42:38;;;;;;;;;98.25;80.50;;;;;23.61;48.96;101007.22;5077389;27;45474;-70
2023/06/29 00:45:04;;;;;;;;;91.33;70.33;;;;;23.62;48.46;101005.38;5063830;28;70131;-68
2023/06/29 00:47:30;;;;;;;;;88.00;68.50;;;;;23.60;48.71;100996.66;5070478;28;46552;-70
2023/06/29 00:49:56;;;;;;;;;79.00;66.75;;;;;23.59;49.09;100997.63;5075633;28;45442;-70
2023/06/29 00:52:23;;;;;;;;;85.75;71.75;;;;;23.60;49.00;101002.00;5073528;27;56738;-70
2023/06/29 00:54:49;;;;;;;;;86.00;66.75;;;;;23.57;48.87;100991.53;5060102;28;45339;-70
2023/06/29 00:57:14;;;;;;;;;84.25;64.75;;;;;23.54;49.26;100997.97;5053163;28;48439;-69
2023/06/29 00:59:40;;;;;;;;;77.25;64.00;;;;;23.52;48.75;100985.72;5049313;28;45366;-70
2023/06/29 01:02:07;;;;;;;;;72.00;54.75;;;;;23.49;49.21;100984.13;5071919;27;57159;-69
2023/06/29 01:04:35;;;;;;;;;82.50;64.25;;;;;23.48;49.21;100977.94;5061106;27;45343;-69
2023/06/29 01:07:21;;;;;;;;;77.25;56.00;;;;;23.44;49.36;100976.50;5073050;27;47014;-69
2023/06/29 01:09:47;;;;;;;;;73.00;57.75;;;;;23.45;48.97;100980.00;5077604;27;45759;-69
2023/06/29 01:12:13;;;;;;;;;74.00;58.00;;;;;23.43;49.29;100981.94;5070398;27;45506;-69
2023/06/29 01:14:39;;;;;;;;;78.25;62.50;;;;;23.42;49.17;100978.41;5073204;28;45493;-70
2023/06/29 01:17:05;;;;;;;;;80.50;61.25;;;;;23.40;49.19;100975.00;5071824;27;45468;-70
2023/06/29 01:19:33;;;;;;;;;83.75;66.50;;;;;23.41;49.50;100976.72;5073723;28;45411;-70
2023/06/29 01:22:04;;;;;;;;;78.50;64.75;;;;;23.40;49.28;100969.66;5075593;27;45433;-70
2023/06/29 01:24:37;;;;;;;;;95.50;76.25;;;;;23.39;49.39;100967.09;5081095;28;45500;-70
2023/06/29 01:27:03;;;;;;;;;101.00;78.25;;;;;23.36;49.58;100967.38;5079465;27;45426;-70
2023/06/29 01:29:29;;;;;;;;;102.50;89.75;;;;;23.35;49.26;100963.81;5080907;27;45526;-70
2023/06/29 01:31:59;;;;;;;;;96.50;79.25;;;;;23.34;49.65;100969.28;5074489;27;45898;-69
2023/06/29 01:34:25;;;;;;;;;102.50;80.00;;;;;23.32;49.42;100977.44;5066057;27;45274;-69
2023/06/29 01:36:51;;;;;;;;;96.75;82.75;;;;;23.30;49.98;100972.22;5057127;28;47047;-69
2023/06/29 01:39:20;;;;;;;;;96.00;78.00;;;;;23.27;49.41;100967.09;5074996;28;45340;-69
2023/06/29 01:41:47;;;;;;;;;93.75;78.00;;;;;23.26;49.87;100957.38;5071790;27;45347;-70
2023/06/29 01:44:14;;;;;;;;;97.50;81.50;;;;;23.26;49.70;100968.06;5080265;27;60210;-70
2023/06/29 01:46:40;;;;;;;;;97.50;81.50;;;;;23.25;49.48;100974.38;5075169;27;45457;-70
2023/06/29 01:49:06;;;;;;;;;90.75;77.25;;;;;23.23;49.65;100980.78;5078363;27;73440;-70
2023/06/29 01:51:32;;;;;;;;;87.00;73.25;;;;;23.24;50.03;100963.81;5071503;28;56781;-70
2023/06/29 01:53:57;;;;;;;;;100.75;77.25;;;;;23.23;50.01;100962.97;5068325;27;68853;-70
2023/06/29 01:56:22;;;;;;;;;95.25;81.00;;;;;23.25;49.71;100968.19;5073287;27;45394;-70
2023/06/29 01:58:48;;;;;;;;;98.00;77.67;;;;;23.24;49.58;100966.47;5073972;27;62134;-71
2023/06/29 02:01:13;;;;;;;;;91.67;80.67;;;;;23.23;49.58;100957.63;5076533;27;68399;-70
2023/06/29 02:03:38;;;;;;;;;113.00;87.00;;;;;23.25;49.51;100957.53;5080306;28;50482;-70
2023/06/29 02:06:04;;;;;;;;;96.67;77.33;;;;;23.23;49.83;100954.97;5075578;28;64446;-71
2023/06/29 02:08:29;;;;;;;;;93.00;75.50;;;;;23.22;49.69;100952.41;5067114;28;45378;-70
2023/06/29 02:10:54;;;;;;;;;99.25;80.25;;;;;23.20;49.65;100947.19;5076552;27;68666;-70
2023/06/29 02:13:20;;;;;;;;;94.50;76.75;;;;;23.17;49.88;100950.06;5074304;27;45413;-70
2023/06/29 02:15:45;;;;;;;;;90.33;74.00;;;;;23.16;49.99;100951.06;5074184;27;63641;-70
2023/06/29 02:18:10;;;;;;;;;96.25;80.50;;;;;23.18;49.61;100948.25;5078648;28;45340;-71
2023/06/29 02:20:36;;;;;;;;;86.00;72.00;;;;;23.17;50.10;100955.41;5080075;27;67876;-70
2023/06/29 02:23:01;;;;;;;;;83.33;70.00;;;;;23.14;50.03;100950.31;5077721;27;56092;-71
2023/06/29 02:25:26;;;;;;;;;89.67;68.33;;;;;23.13;50.05;100949.47;5075520;28;58702;-71
2023/06/29 02:27:52;;;;;;;;;76.25;60.25;;;;;23.12;49.82;100946.91;5078568;28;54759;-71
2023/06/29 02:30:17;;;;;;;;;71.50;53.00;;;;;23.08;50.35;100943.63;5076367;27;45439;-71
2023/06/29 02:32:42;;;;;;;;;67.00;51.00;;;;;23.07;50.31;100938.41;5071799;27;67916;-70
2023/06/29 02:35:08;;;;;;;;;70.50;53.75;;;;;23.07;50.09;100939.28;5058914;28;70864;-70
2023/06/29 02:37:33;;;;;;;;;67.25;50.00;;;;;23.06;50.62;100934.03;5074548;28;45686;-70
2023/06/29 02:39:59;;;;;;;;;66.75;49.75;;;;;23.07;50.34;100935.72;5072429;27;50235;-71
2023/06/29 02:42:24;;;;;;;;;65.00;47.00;;;;;23.06;50.19;100936.72;5071589;28;63336;-71
2023/06/29 02:44:49;;;;;;;;;67.25;50.00;;;;;23.03;50.24;100928.91;5078595;27;45347;-71
2023/06/29 02:47:15;;;;;;;;;62.50;47.50;;;;;23.01;49.92;100941.50;5074845;28;45442;-71
2023/06/29 02:49:40;;;;;;;;;62.00;46.75;;;;;22.98;50.39;100931.06;5054596;28;64922;-71
2023/06/29 02:52:06;;;;;;;;;65.50;47.75;;;;;22.95;50.73;100932.16;5077426;28;66696;-71
2023/06/29 02:54:31;;;;;;;;;56.75;43.25;;;;;22.90;50.51;100929.84;5082251;27;45386;-71
2023/06/29 02:56:56;;;;;;;;;54.50;42.00;;;;;22.89;51.12;100936.13;5073981;28;60227;-71
2023/06/29 02:59:22;;;;;;;;;60.00;45.50;;;;;22.89;51.01;100935.28;5079665;28;55575;-71
2023/06/29 03:01:47;;;;;;;;;53.00;39.50;;;;;22.88;50.69;100928.25;5075870;28;45276;-71
2023/06/29 03:04:13;;;;;;;;;57.25;44.00;;;;;22.88;51.05;100933.59;5051534;28;48810;-71
2023/06/29 03:06:38;;;;;;;;;55.75;41.75;;;;;22.85;51.41;100929.31;5069190;28;62432;-71
2023/06/29 03:09:04;;;;;;;;;51.50;40.00;;;;;22.84;51.23;100924.09;5064844;28;51644;-71
2023/06/29 03:11:29;;;;;;;;;65.50;46.00;;;;;22.82;51.59;100942.91;5076913;27;45556;-71
2023/06/29 03:13:57;;;;;;;;;57.25;42.75;;;;;22.80;51.11;100925.31;5077856;27;64682;-71
2023/06/29 03:16:22;;;;;;;;;60.00;45.25;;;;;22.79;51.61;100927.13;5069192;28;45454;-70
2023/06/29 03:18:47;;;;;;;;;59.25;43.00;;;;;22.79;51.77;100926.25;5073161;27;45336;-70
2023/06/29 03:21:16;;;;;;;;;60.75;44.50;;;;;22.79;51.84;100926.25;5071049;27;58185;-70
2023/06/29 03:23:42;;;;;;;;;56.50;44.75;;;;;22.74;52.18;100923.97;5067944;27;45536;-72
2023/06/29 03:26:07;;;;;;;;;62.25;46.50;;;;;22.73;51.72;100931.13;5070659;28;45353;-71
2023/06/29 03:28:32;;;;;;;;;63.50;47.75;;;;;22.66;52.71;100924.53;5077731;27;54717;-71
2023/06/29 03:30:58;;;;;;;;;62.25;45.25;;;;;22.64;52.76;100925.63;5071905;27;64483;-71
2023/06/29 03:33:23;;;;;;;;;59.50;46.00;;;;;22.58;52.81;100923.41;5074057;28;46247;-71
2023/06/29 03:35:48;;;;;;;;;65.50;46.50;;;;;22.53;53.44;100924.59;5073620;27;47176;-71
2023/06/29 03:38:14;;;;;;;;;63.75;48.00;;;;;22.47;53.33;100925.06;5074979;28;45424;-71
2023/06/29 03:40:39;;;;;;;;;67.75;48.25;;;;;22.46;53.57;100926.00;5070058;28;45568;-71
2023/06/29 03:43:05;;;;;;;;;53.50;43.75;;;;;22.46;53.19;100928.69;5075263;27;66440;-71
2023/06/29 03:45:31;;;;;;;;;57.25;42.75;;;;;22.43;53.73;100928.06;5075963;27;45520;-71
2023/06/29 03:47:57;;;;;;;;;61.25;45.75;;;;;22.42;53.67;100923.72;5072968;28;45306;-71
2023/06/29 03:50:22;;;;;;;;;61.00;46.00;;;;;22.37;53.83;100930.22;5078485;27;45569;-72
2023/06/29 03:52:47;;;;;;;;;66.75;46.75;;;;;22.33;53.91;100927.91;5072817;27;75885;-71
2023/06/29 03:55:12;;;;;;;;;63.75;47.75;;;;;22.32;54.14;100928.84;5066419;28;59142;-71
2023/06/29 03:57:38;;;;;;;;;56.50;43.25;;;;;22.27;53.57;100931.84;5070785;27;65281;-71
2023/06/29 04:00:04;;;;;;;;;62.75;47.00;;;;;22.26;54.34;100927.47;5067767;28;64474;-70
2023/06/29 04:02:29;;;;;;;;;63.00;46.50;;;;;22.23;54.23;100925.00;5075752;27;46503;-71
2023/06/29 04:04:54;;;;;;;;;65.00;47.75;;;;;22.24;54.38;100928.53;5066315;28;62275;-71
2023/06/29 04:07:19;;;;;;;;;61.25;45.50;;;;;22.19;55.07;100921.72;5066776;28;61541;-71
2023/06/29 04:09:45;;;;;;;;;65.50;46.00;;;;;22.19;54.78;100927.06;5068495;27;64859;-71
2023/06/29 04:12:10;;;;;;;;;60.75;46.75;;;;;22.18;54.92;100919.16;5074882;27;69659;-72
2023/06/29 04:14:35;;;;;;;;;57.75;42.50;;;;;22.15;54.88;100914.06;5078270;27;59568;-72
2023/06/29 04:17:01;;;;;;;;;57.50;44.25;;;;;22.15;54.86;100914.91;5071810;27;45367;-72
2023/06/29 04:19:26;;;;;;;;;60.00;45.00;;;;;22.16;55.44;100916.59;5073496;28;45523;-72
2023/06/29 04:21:52;;;;;;;;;54.50;42.25;;;;;22.17;55.09;100909.47;5067924;27;45430;-71
2023/06/29 04:24:17;;;;;;;;;53.00;42.00;;;;;22.19;55.45;100907.56;5077910;28;71142;-71
2023/06/29 04:26:43;;;;;;;;;55.75;40.25;;;;;22.22;54.96;100904.63;5070474;28;45689;-71
2023/06/29 04:29:08;;;;;;;;;53.50;38.75;;;;;22.23;55.36;100898.34;5055132;28;45536;-72
2023/06/29 04:31:33;;;;;;;;;44.75;34.75;;;;;22.26;55.87;100906.13;5070077;28;45502;-71
2023/06/29 04:33:59;;;;;;;;;51.25;34.00;;;;;22.26;55.41;100903.47;5078113;27;66838;-71
2023/06/29 04:36:25;;;;;;;;;44.75;35.00;;;;;22.29;55.28;100907.75;5071923;27;45978;-71
2023/06/29 04:38:50;;;;;;;;;48.25;36.25;;;;;22.28;55.80;100904.22;5075569;28;45733;-71
2023/06/29 04:41:16;;;;;;;;;52.25;37.00;;;;;22.28;55.33;100904.22;5068526;28;57945;-72
2023/06/29 04:43:41;;;;;;;;;53.75;41.00;;;;;22.26;55.60;100900.81;5073986;28;45386;-72
2023/06/29 04:46:07;;;;;;;;;51.00;38.25;;;;;22.19;55.31;100900.41;5073684;27;45540;-72
2023/06/29 04:48:38;;;;;;;;;53.50;40.25;;;;;22.17;56.03;100898.81;5077922;27;45394;-72
2023/06/29 04:51:07;;;;;;;;;44.00;35.25;;;;;22.17;56.18;100902.31;5068312;28;47316;-72
2023/06/29 04:53:36;;;;;;;;;44.25;34.25;;;;;22.21;55.35;100900.28;5077474;28;45456;-70
2023/06/29 04:56:04;;;;;;;;;41.25;32.00;;;;;22.22;55.86;100909.97;5068157;28;45528;-70
2023/06/29 04:58:30;;;;;;;;;45.25;32.75;;;;;22.22;56.55;100909.97;5069694;27;45335;-70
2023/06/29 05:00:56;;;;;;;;;43.00;33.00;;;;;22.20;57.00;100917.22;5067623;27;46063;-70
2023/06/29 05:03:21;;;;;;;;;45.50;34.25;;;;;22.19;56.43;100913.72;5067035;28;45452;-70
2023/06/29 05:05:47;;;;;;;;;35.00;29.00;;;;;22.16;56.82;100915.75;5073826;28;56438;-71
2023/06/29 05:08:12;;;;;;;;;43.25;32.75;;;;;22.14;56.31;100910.53;5076002;28;51512;-70
2023/06/29 05:10:37;;;;;;;;;43.25;31.25;;;;;22.14;56.78;100921.19;5072195;27;45419;-70
2023/06/29 05:13:03;;;;;;;;;41.00;32.25;;;;;22.14;56.90;100915.88;5078014;27;45289;-70
2023/06/29 05:15:28;;;;;;;;;48.50;35.25;;;;;22.13;56.93;100927.50;5048816;28;50871;-70
2023/06/29 05:17:54;;;;;;;;;45.00;32.50;;;;;22.09;56.85;100922.50;5066336;28;71673;-70
2023/06/29 05:20:19;;;;;;;;;40.75;31.75;;;;;22.03;56.68;100920.28;5073053;28;45426;-70
2023/06/29 05:22:45;;;;;;;;;42.25;33.00;;;;;22.01;57.37;100917.75;5076406;28;45439;-70
2023/06/29 05:25:10;;;;;;;;;45.75;32.00;;;;;22.03;57.03;100917.59;5074833;27;45328;-69
2023/06/29 05:27:36;;;;;;;;;47.25;33.00;;;;;22.00;57.01;100916.03;5073289;27;45446;-69
2023/06/29 05:30:02;;;;;;;;;46.75;31.75;;;;;21.99;57.05;100915.19;5056994;28;71967;-69
2023/06/29 05:32:28;;;;;;;;;42.75;32.00;;;;;21.96;57.12;100918.06;5069086;28;45469;-69
2023/06/29 05:34:53;;;;;;;;;47.75;35.50;;;;;21.95;57.07;100918.16;5071330;28;45440;-69
2023/06/29 05:37:20;;;;;;;;;50.00;35.25;;;;;21.93;57.47;100920.94;5075693;27;45537;-69
2023/06/29 05:39:45;;;;;;;;;47.75;35.25;;;;;21.90;58.09;100913.19;5072548;28;46994;-69
2023/06/29 05:42:10;;;;;;;;;46.75;36.00;;;;;21.91;57.54;100912.22;5069560;28;45460;-69
2023/06/29 05:44:36;;;;;;;;;41.75;33.75;;;;;21.93;57.22;100922.75;5066775;28;69097;-69
2023/06/29 05:47:01;;;;;;;;;43.75;31.75;;;;;21.91;57.61;100924.69;5076500;28;68818;-69
2023/06/29 05:49:26;;;;;;;;;42.25;31.50;;;;;21.88;57.92;100914.25;5064122;28;73562;-70
2023/06/29 05:51:52;;;;;;;;;45.00;31.25;;;;;21.88;57.82;100924.91;5073043;28;45350;-69
2023/06/29 05:54:18;;;;;;;;;41.75;30.00;;;;;21.86;58.25;100918.84;5074813;28;45433;-70
2023/06/29 05:56:43;;;;;;;;;45.00;32.00;;;;;21.88;58.06;100919.56;5071991;28;45386;-74
2023/06/29 05:59:11;;;;;;;;;50.75;37.75;;;;;21.92;57.87;100919.25;5071649;28;45647;-74
2023/06/29 06:01:36;;;;;;;;;33.25;24.75;;;;;21.89;58.50;100922.13;5075126;27;45410;-72
2023/06/29 06:04:05;;;;;;;;;40.50;31.25;;;;;21.86;58.45;100918.84;5070528;27;45648;-71
2023/06/29 06:06:32;;;;;;;;;35.75;28.75;;;;;21.88;59.08;100917.75;5055820;28;45470;-69
2023/06/29 06:08:58;;;;;;;;;45.00;33.25;;;;;21.81;59.34;100913.81;5067431;28;46323;-68
2023/06/29 06:11:23;;;;;;;;;44.00;33.50;;;;;21.78;59.33;100914.06;5071629;28;45339;-69
2023/06/29 06:13:48;;;;;;;;;38.50;31.50;;;;;21.75;59.29;100916.94;5068952;27;58421;-71
2023/06/29 06:16:14;;;;;;;;;46.50;32.75;;;;;21.75;58.96;100914.28;5076162;27;45437;-69
2023/06/29 06:18:39;;;;;;;;;46.75;33.25;;;;;21.84;59.40;100915.44;5076822;28;69671;-67
2023/06/29 06:21:04;;;;;;;;;44.50;33.00;;;;;21.84;59.29;100915.44;5070336;28;51517;-68
2023/06/29 06:23:31;;;;;;;;;41.50;30.00;;;;;21.87;59.27;100913.41;5073274;28;58837;-69
2023/06/29 06:25:56;;;;;;;;;37.00;30.00;;;;;21.87;59.56;100913.41;5075729;27;45541;-68
2023/06/29 06:28:23;;;;;;;;;45.25;34.75;;;;;21.86;59.11;100914.34;5076926;28;74471;-70
2023/06/29 06:30:49;;;;;;;;;49.00;33.00;;;;;21.89;59.18;100905.31;5041111;28;45543;-70
2023/06/29 06:33:16;;;;;;;;;41.25;32.00;;;;;22.00;59.47;100910.69;5070234;27;45308;-70
2023/06/29 06:35:41;;;;;;;;;45.25;36.00;;;;;21.99;59.22;100911.66;5072956;27;45477;-71
2023/06/29 06:38:06;;;;;;;;;45.75;32.00;;;;;21.97;59.20;100913.56;5079311;27;46469;-74
2023/06/29 06:40:32;;;;;;;;;47.75;34.75;;;;;22.00;58.95;100914.19;5069848;28;45396;-71
2023/06/29 06:42:57;;;;;;;;;38.50;30.25;;;;;22.03;59.54;100909.59;5075351;27;69107;-72
2023/06/29 06:45:22;;;;;;;;;43.50;33.00;;;;;22.07;58.78;100921.78;5073772;27;45270;-72
2023/06/29 06:47:48;;;;;;;;;41.50;32.75;;;;;22.10;58.84;100916.22;5071141;28;70344;-72
2023/06/29 06:50:13;;;;;;;;;45.75;33.50;;;;;22.13;59.01;100911.53;5070382;27;45384;-72
2023/06/29 06:52:39;;;;;;;;;47.00;35.00;;;;;22.14;59.23;100915.03;5072527;27;45240;-73
2023/06/29 06:55:05;;;;;;;;;45.00;32.50;;;;;22.14;59.04;100910.53;5073218;27;45213;-73
2023/06/29 06:57:31;;;;;;;;;38.75;31.50;;;;;22.16;59.38;100918.44;5076067;27;47218;-73
2023/06/29 06:59:56;;;;;;;;;44.00;32.00;;;;;22.10;59.48;100906.41;5068705;28;45305;-72
2023/06/29 07:02:21;;;;;;;;;48.25;34.00;;;;;22.06;59.59;100910.28;5076657;27;45425;-72
2023/06/29 07:04:47;;;;;;;;;36.75;30.75;;;;;22.07;59.01;100927.94;5061007;28;57537;-71
2023/06/29 07:07:14;;;;;;;;;44.50;33.75;;;;;22.11;59.47;100900.09;5072206;27;45442;-71
2023/06/29 07:09:39;;;;;;;;;42.50;33.75;;;;;22.14;59.00;100913.22;5072574;27;45896;-71
2023/06/29 07:12:05;;;;;;;;;42.50;31.00;;;;;22.18;58.93;100904.00;5058426;27;61561;-71
2023/06/29 07:14:31;;;;;;;;;38.50;33.50;;;;;22.19;59.27;100911.06;5073539;28;45355;-71
2023/06/29 07:16:57;;;;;;;;;44.00;31.00;;;;;22.21;59.29;100910.94;5068817;27;47771;-71
2023/06/29 07:19:23;;;;;;;;;46.00;32.75;;;;;22.23;59.21;100905.50;5075637;28;45411;-71
2023/06/29 07:21:48;;;;;;;;;46.75;35.50;;;;;22.24;59.31;100905.41;5070721;28;45406;-71
2023/06/29 07:24:13;;;;;;;;;44.50;30.50;;;;;22.30;58.90;100906.78;5078194;28;72779;-71
2023/06/29 07:26:39;;;;;;;;;43.25;30.00;;;;;22.34;58.82;100901.09;5069786;27;64217;-71
2023/06/29 07:29:05;;;;;;;;;36.75;31.00;;;;;22.43;58.85;100907.56;5073630;28;45324;-71
2023/06/29 07:31:31;;;;;;;;;38.75;30.25;;;;;22.49;58.69;100908.94;5055952;28;45431;-71
2023/06/29 07:33:56;;;;;;;;;43.25;32.00;;;;;22.49;58.63;100907.13;5062764;28;45462;-70
2023/06/29 07:36:23;;;;;;;;;39.50;30.25;;;;;22.56;58.70;100915.53;5074146;27;46907;-70
2023/06/29 07:38:49;;;;;;;;;38.00;30.75;;;;;22.54;58.01;100904.09;5072983;28;45494;-71
2023/06/29 07:41:15;;;;;;;;;42.50;32.25;;;;;22.56;58.45;100897.69;5074673;28;45394;-71
2023/06/29 07:43:42;;;;;;;;;39.00;30.75;;;;;22.66;57.74;100899.66;5073908;27;45453;-72
2023/06/29 07:46:07;;;;;;;;;43.50;32.00;;;;;22.71;57.79;100897.50;5052278;27;47240;-72
2023/06/29 07:48:33;;;;;;;;;41.25;30.25;;;;;22.77;57.87;100904.19;5073948;27;45343;-72
2023/06/29 07:50:58;;;;;;;;;36.75;30.25;;;;;22.78;57.59;100906.75;5075208;27;57950;-70
2023/06/29 07:53:24;;;;;;;;;43.50;34.75;;;;;22.86;57.74;100898.16;5065029;28;45368;-70
2023/06/29 07:55:49;;;;;;;;;46.25;32.25;;;;;22.93;57.43;100900.25;5071746;28;46210;-70
2023/06/29 07:58:16;;;;;;;;;42.25;31.00;;;;;23.05;57.29;100901.13;5069966;27;71428;-70
2023/06/29 08:00:41;;;;;;;;;40.50;31.75;;;;;23.13;57.15;100898.75;5055792;28;45528;-70
2023/06/29 08:03:07;;;;;;;;;37.00;30.75;;;;;23.22;56.62;100899.84;5064295;27;70673;-70
2023/06/29 08:05:32;;;;;;;;;40.75;31.25;;;;;23.29;56.54;100887.72;5073766;27;45396;-68
2023/06/29 08:07:57;;;;;;;;;37.50;31.00;;;;;23.38;56.25;100891.47;5073795;27;45605;-70
2023/06/29 08:10:23;;;;;;;;;45.00;33.75;;;;;23.44;56.20;100880.34;5073271;27;59030;-68
2023/06/29 08:12:49;;;;;;;;;47.00;32.50;;;;;23.51;55.82;100883.34;5077016;28;45452;-69
2023/06/29 08:15:15;;;;;;;;;41.75;31.50;;;;;23.55;55.68;100883.94;5070714;28;46481;-69
2023/06/29 08:17:40;;;;;;;;;44.50;32.25;;;;;23.52;55.54;100879.72;5049731;28;45902;-70
2023/06/29 08:20:09;;;;;;;;;43.50;33.25;;;;;23.53;55.54;100877.88;5067804;28;45895;-70
2023/06/29 08:22:34;;;;;;;;;49.00;32.50;;;;;23.56;55.60;100877.66;5055843;28;45553;-69
2023/06/29 08:24:59;;;;;;;;;41.50;31.75;;;;;23.59;55.47;100882.75;5069536;27;65687;-71
2023/06/29 08:27:25;;;;;;;;;41.25;30.75;;;;;23.65;54.94;100880.41;5076161;27;46340;-69
2023/06/29 08:29:52;;;;;;;;;46.75;34.00;;;;;23.74;55.20;100878.00;5077954;28;56721;-68
2023/06/29 08:32:17;;;;;;;;;44.00;32.50;;;;;23.87;55.00;100878.75;5075661;27;45662;-69
2023/06/29 08:34:43;;;;;;;;;45.00;34.75;;;;;23.99;54.61;100882.22;5065123;28;48553;-70
2023/06/29 08:37:08;;;;;;;;;33.75;29.75;;;;;24.07;54.42;100880.63;5075073;28;67496;-69
2023/06/29 08:39:34;;;;;;;;;37.75;33.00;;;;;24.28;53.96;100889.72;5084522;27;53407;-68
2023/06/29 08:41:59;;;;;;;;;39.75;32.00;;;;;24.48;53.77;100888.06;5052813;28;45513;-69
2023/06/29 08:44:25;;;;;;;;;46.00;31.75;;;;;24.59;53.23;100885.34;5067769;27;50952;-69
2023/06/29 08:46:50;;;;;;;;;38.50;29.50;;;;;24.69;52.72;100888.94;5074886;28;45367;-70
2023/06/29 08:49:20;;;;;;;;;43.75;32.00;;;;;24.74;52.51;100889.41;5059397;28;45283;-70
2023/06/29 08:51:46;;;;;;;;;46.25;35.00;;;;;24.78;52.60;100892.69;5077514;27;45402;-70
2023/06/29 08:54:12;;;;;;;;;41.50;32.00;;;;;24.86;52.36;100890.22;5075843;27;47347;-71
2023/06/29 08:56:38;;;;;;;;;38.25;31.50;;;;;24.89;51.92;100886.41;5073368;28;46006;-70
2023/06/29 08:59:03;;;;;;;;;42.00;32.00;;;;;24.91;51.91;100879.09;5074152;28;48813;-71
2023/06/29 09:01:30;;;;;;;;;40.00;32.00;;;;;24.92;51.81;100876.28;5076343;27;59761;-71
2023/06/29 09:03:56;;;;;;;;;43.75;33.00;;;;;24.95;51.74;100876.03;5077218;27;45361;-72
2023/06/29 09:06:23;;;;;;;;;35.00;27.25;;;;;25.03;51.36;100878.03;5071559;28;45554;-69
2023/06/29 09:08:49;;;;;;;;;43.00;35.00;;;;;25.10;51.22;100871.19;5076116;27;45453;-69
2023/06/29 09:11:15;;;;;;;;;42.00;33.50;;;;;25.19;51.25;100874.88;5066332;28;45448;-69
2023/06/29 09:13:40;;;;;;;;;43.25;31.25;;;;;25.30;51.04;100873.97;5056070;28;47906;-70
2023/06/29 09:16:06;;;;;;;;;37.00;32.50;;;;;25.33;50.58;100871.88;5073431;27;45446;-68
2023/06/29 09:18:32;;;;;;;;;45.00;35.25;;;;;25.41;51.05;100873.91;5073276;27;45413;-68
2023/06/29 09:20:58;;;;;;;;;46.00;34.75;;;;;25.42;50.27;100867.56;5071589;28;45588;-70
2023/06/29 09:23:28;;;;;;;;;40.50;31.25;;;;;25.39;50.24;100866.00;5077474;28;47009;-70
2023/06/29 09:25:55;;;;;;;;;44.25;33.50;;;;;25.45;50.00;100863.78;5060990;27;45892;-70
2023/06/29 09:28:20;;;;;;;;;43.75;34.00;;;;;25.56;50.15;100869.03;5072500;28;45525;-70
2023/06/29 09:30:46;;;;;;;;;46.00;36.00;;;;;25.61;49.44;100872.16;5073352;27;45248;-69
2023/06/29 09:33:13;;;;;;;;;41.50;31.00;;;;;25.66;49.76;100869.06;5077774;28;45481;-68
2023/06/29 09:35:46;;;;;;;;;45.00;31.00;;;;;25.72;49.44;100869.34;5069412;28;45427;-68
2023/06/29 09:38:14;;;;;;;;;43.75;34.00;;;;;25.79;49.93;100858.94;5076593;27;45410;-70
2023/06/29 09:40:47;;;;;;;;;47.00;36.50;;;;;25.89;49.45;100867.84;5070582;27;45784;-68
2023/06/29 09:43:20;;;;;;;;;40.75;33.00;;;;;25.95;49.07;100871.84;5076956;28;46550;-68
2023/06/29 09:45:46;;;;;;;;;44.25;34.50;;;;;25.94;48.43;100875.50;5079186;27;45965;-68
2023/06/29 09:48:12;;;;;;;;;43.25;32.75;;;;;25.90;48.88;100869.53;5077432;28;45528;-68
2023/06/29 09:50:41;;;;;;;;;46.25;35.50;;;;;25.91;48.67;100875.75;5073906;27;45516;-71
2023/06/29 09:53:09;;;;;;;;;48.00;34.75;;;;;25.94;48.72;100875.50;5075908;27;45536;-68
2023/06/29 09:55:35;;;;;;;;;39.00;33.25;;;;;25.94;48.07;100876.38;5071667;28;45372;-70
2023/06/29 09:58:00;;;;;;;;;34.50;30.50;;;;;25.96;48.60;100876.22;5079010;27;45368;-68
2023/06/29 10:00:27;;;;;;;;;45.75;32.75;;;;;26.06;48.38;100870.88;5067611;28;45381;-69
2023/06/29 10:02:56;;;;;;;;;48.50;37.25;;;;;26.09;47.40;100871.44;5075365;27;45457;-67
2023/06/29 10:05:21;;;;;;;;;38.25;31.25;;;;;26.11;47.31;100877.50;5051085;27;45337;-68
2023/06/29 10:07:46;;;;;;;;;44.00;31.75;;;;;26.15;47.24;100870.03;5077004;27;63866;-68
2023/06/29 10:10:15;;;;;;;;;40.75;32.00;;;;;26.24;47.00;100874.59;5074352;28;62570;-69
2023/06/29 10:12:41;;;;;;;;;42.00;32.75;;;;;26.30;46.97;100874.00;5075457;27;46864;-69
2023/06/29 10:15:12;;;;;;;;;37.50;30.50;;;;;26.31;47.26;100883.75;5055086;28;45912;-69
2023/06/29 10:17:41;;;;;;;;;35.25;29.00;;;;;26.30;47.05;100874.00;5073774;28;45473;-68
2023/06/29 10:20:07;;;;;;;;;40.75;33.50;;;;;26.32;46.65;100879.22;5080412;27;45711;-71
2023/06/29 10:22:35;;;;;;;;;35.25;30.00;;;;;26.42;47.07;100874.72;5065940;28;47489;-72
2023/06/29 10:25:05;;;;;;;;;46.50;33.25;;;;;26.57;47.09;100871.59;5062762;28;45347;-73
2023/06/29 10:27:32;;;;;;;;;43.00;32.50;;;;;26.60;46.64;100871.34;5073230;28;45383;-71
2023/06/29 10:30:03;;;;;;;;;37.50;28.00;;;;;26.62;46.82;100878.28;5076051;27;45499;-74
2023/06/29 10:32:39;;;;;;;;;42.00;33.50;;;;;26.67;46.02;100875.16;5073407;27;46851;-74
2023/06/29 10:35:08;;;;;;;;;35.25;28.25;;;;;26.65;46.01;100879.84;5079652;28;45249;-71
2023/06/29 10:37:40;;;;;;;;;43.50;34.50;;;;;26.60;45.78;100877.53;5071416;27;45440;-72
2023/06/29 10:40:16;;;;;;;;;43.75;34.00;;;;;26.55;46.28;100877.13;5060130;28;45363;-74
2023/06/29 10:42:42;;;;;;;;;30.50;24.75;;;;;26.58;46.26;100879.53;5077291;28;45487;-71
2023/06/29 10:45:20;;;;;;;;;35.67;31.00;;;;;26.52;45.88;100878.25;5078342;28;45513;-71
2023/06/29 10:48:09;;;;;;;;;39.00;28.25;;;;;26.37;45.43;100873.47;5076460;27;45314;-71
2023/06/29 10:50:45;;;;;;;;;44.25;34.00;;;;;26.28;46.13;100865.25;5073224;27;45625;-71
2023/06/29 10:53:15;;;;;;;;;38.50;31.00;;;;;26.28;46.19;100859.88;5077802;27;45655;-71
2023/06/29 10:55:42;;;;;;;;;44.25;35.25;;;;;26.32;46.17;100858.59;5052879;28;45788;-70
2023/06/29 10:58:16;;;;;;;;;44.25;33.75;;;;;26.36;45.67;100861.00;5073011;28;45557;-68
2023/06/29 11:00:41;;;;;;;;;41.25;34.00;;;;;26.37;45.15;100852.81;5070441;27;45271;-69
2023/06/29 11:03:09;;;;;;;;;43.75;34.00;;;;;26.38;45.62;100845.63;5078999;27;49364;-73
2023/06/29 11:05:34;;;;;;;;;45.00;34.25;;;;;26.41;45.24;100854.22;5078526;27;45916;-73